createdAt,value
2023-05-07T00:01:22.515Z,89.12
2023-05-07T00:03:49.705Z,89.03
2023-05-07T00:06:16.804Z,89.17
2023-05-07T00:08:43.874Z,89.09
2023-05-07T00:11:10.882Z,89.04
2023-05-07T00:13:37.694Z,89.27
2023-05-07T00:16:05.512Z,89.05
2023-05-07T00:18:32.720Z,89.14
2023-05-07T00:21:01.856Z,89.15
2023-05-07T00:23:28.772Z,89.44
2023-05-07T00:25:57.371Z,89.09
2023-05-07T00:28:26.649Z,89.27
2023-05-07T00:30:54.096Z,89.29
2023-05-07T00:33:21.962Z,89.08
2023-05-07T00:35:49.428Z,89.10
2023-05-07T00:38:16.711Z,89.23
2023-05-07T00:40:43.697Z,89.45
2023-05-07T00:43:10.622Z,89.70
2023-05-07T00:45:37.467Z,89.56
2023-05-07T00:48:06.836Z,89.59
2023-05-07T00:50:34.257Z,89.50
2023-05-07T00:53:01.676Z,89.60
2023-05-07T00:55:28.694Z,89.73
2023-05-07T00:57:55.839Z,89.81
2023-05-07T01:00:22.668Z,89.85
2023-05-07T01:02:49.738Z,89.81
2023-05-07T01:05:23.878Z,89.84
2023-05-07T01:07:53.961Z,90.13
2023-05-07T01:10:20.860Z,89.92
2023-05-07T01:12:49.706Z,89.82
2023-05-07T01:15:17.105Z,90.03
2023-05-07T01:17:45.679Z,90.46
2023-05-07T01:20:13.132Z,90.35
2023-05-07T01:22:40.950Z,90.29
2023-05-07T01:25:09.243Z,90.50
2023-05-07T01:27:38.097Z,90.39
2023-05-07T01:30:06.376Z,90.46
2023-05-07T01:32:44.254Z,90.20
2023-05-07T01:35:15.021Z,90.59
2023-05-07T01:37:42.679Z,90.40
2023-05-07T01:40:10.761Z,90.62
2023-05-07T01:42:38.261Z,90.77
2023-05-07T01:45:05.557Z,90.58
2023-05-07T01:47:33.346Z,90.74
2023-05-07T01:50:00.456Z,90.67
2023-05-07T01:52:28.948Z,91.00
2023-05-07T01:54:55.852Z,90.81
2023-05-07T01:57:22.758Z,90.97
2023-05-07T01:59:51.962Z,91.17
2023-05-07T02:02:18.834Z,91.11
2023-05-07T02:04:45.718Z,91.21
2023-05-07T02:07:12.371Z,91.31
2023-05-07T02:09:39.319Z,91.46
2023-05-07T02:12:06.605Z,91.89
2023-05-07T02:14:38.097Z,91.61
2023-05-07T02:17:10.834Z,91.69
2023-05-07T02:19:42.448Z,91.73
2023-05-07T02:22:11.064Z,91.54
2023-05-07T02:24:37.990Z,91.42
2023-05-07T02:27:07.232Z,91.74
2023-05-07T02:29:34.173Z,91.75
2023-05-07T02:32:01.070Z,91.88
2023-05-07T02:34:28.251Z,91.88
2023-05-07T02:36:57.761Z,91.94
2023-05-07T02:39:24.545Z,92.13
2023-05-07T02:41:51.117Z,92.09
2023-05-07T02:44:17.964Z,92.13
2023-05-07T02:46:44.911Z,92.29
2023-05-07T02:49:14.321Z,92.33
2023-05-07T02:51:41.174Z,92.36
2023-05-07T02:54:08.160Z,92.27
2023-05-07T02:56:35.064Z,92.22
2023-05-07T02:59:01.878Z,92.37
2023-05-07T03:01:28.799Z,92.40
2023-05-07T03:03:55.579Z,92.51
2023-05-07T03:06:22.712Z,92.31
2023-05-07T03:08:51.877Z,92.65
2023-05-07T03:11:18.943Z,92.49
2023-05-07T03:13:50.284Z,92.57
2023-05-07T03:16:17.444Z,92.62
2023-05-07T03:18:44.567Z,92.57
2023-05-07T03:21:14.005Z,92.82
2023-05-07T03:23:45.555Z,92.61
2023-05-07T03:26:14.555Z,92.80
2023-05-07T03:28:41.477Z,92.75
2023-05-07T03:31:10.729Z,92.97
2023-05-07T03:33:51.398Z,92.98
2023-05-07T03:36:18.345Z,93.27
2023-05-07T03:38:45.149Z,93.32
2023-05-07T03:41:12.119Z,93.44
2023-05-07T03:43:38.999Z,93.57
2023-05-07T03:46:05.968Z,93.45
2023-05-07T03:48:32.842Z,93.64
2023-05-07T03:51:00.426Z,93.44
2023-05-07T03:53:27.471Z,93.41
2023-05-07T03:55:54.289Z,93.45
2023-05-07T03:58:21.306Z,93.45
2023-05-07T04:00:51.007Z,93.71
2023-05-07T04:03:18.515Z,93.61
2023-05-07T04:05:48.157Z,93.48
2023-05-07T04:08:17.392Z,93.37
2023-05-07T04:10:44.405Z,93.59
2023-05-07T04:13:11.512Z,93.81
2023-05-07T04:15:38.371Z,93.71
2023-05-07T04:18:08.570Z,94.06
2023-05-07T04:20:37.965Z,94.17
2023-05-07T04:23:05.076Z,94.36
2023-05-07T04:25:32.653Z,94.45
2023-05-07T04:27:59.915Z,94.45
2023-05-07T04:30:27.506Z,94.63
2023-05-07T04:32:57.436Z,94.40
2023-05-07T04:35:24.504Z,94.42
2023-05-07T04:37:53.554Z,94.38
2023-05-07T04:40:21.158Z,94.65
2023-05-07T04:42:51.272Z,94.68
2023-05-07T04:45:18.960Z,94.93
2023-05-07T04:47:48.268Z,94.79
2023-05-07T04:50:18.945Z,94.49
2023-05-07T04:52:46.470Z,94.75
2023-05-07T04:55:16.046Z,94.63
2023-05-07T04:57:49.219Z,94.62
2023-05-07T05:00:36.201Z,94.62
2023-05-07T05:03:03.177Z,94.38
2023-05-07T05:05:32.337Z,94.36
2023-05-07T05:08:01.294Z,94.34
2023-05-07T05:10:28.109Z,94.11
2023-05-07T05:12:55.656Z,94.17
2023-05-07T05:15:34.163Z,94.26
2023-05-07T05:18:03.794Z,94.40
2023-05-07T05:20:33.440Z,94.55
2023-05-07T05:23:00.484Z,94.78
2023-05-07T05:25:27.213Z,94.60
2023-05-07T05:27:54.094Z,94.82
2023-05-07T05:30:22.494Z,94.48
2023-05-07T05:32:50.048Z,94.46
2023-05-07T05:35:16.923Z,94.63
2023-05-07T05:37:46.809Z,94.58
2023-05-07T05:40:18.384Z,95.04
2023-05-07T05:42:45.336Z,95.01
2023-05-07T05:45:12.323Z,95.32
2023-05-07T05:47:40.144Z,95.19
2023-05-07T05:50:26.093Z,95.27
2023-05-07T05:52:55.408Z,95.23
2023-05-07T05:55:23.279Z,95.18
2023-05-07T05:57:52.525Z,95.49
2023-05-07T06:00:19.903Z,95.42
2023-05-07T06:02:47.030Z,95.45
2023-05-07T06:05:13.966Z,95.26
2023-05-07T06:07:40.733Z,95.14
2023-05-07T06:10:08.158Z,94.93
2023-05-07T06:12:35.207Z,94.60
2023-05-07T06:15:02.690Z,94.64
2023-05-07T06:17:29.413Z,94.28
2023-05-07T06:19:56.210Z,94.14
2023-05-07T06:22:23.086Z,94.49
2023-05-07T06:24:49.727Z,94.26
2023-05-07T06:27:16.486Z,94.12
2023-05-07T06:30:14.164Z,93.84
2023-05-07T06:32:38.041Z,93.73
2023-05-07T06:35:05.387Z,94.00
2023-05-07T06:37:32.164Z,93.98
2023-05-07T06:40:01.090Z,94.04
2023-05-07T06:42:30.447Z,93.96
2023-05-07T06:44:57.179Z,93.67
2023-05-07T06:47:24.409Z,93.67
2023-05-07T06:49:53.333Z,93.41
2023-05-07T06:52:20.256Z,93.34
2023-05-07T06:54:49.475Z,93.38
2023-05-07T06:57:16.091Z,93.24
2023-05-07T06:59:42.847Z,93.38
2023-05-07T07:02:09.790Z,93.29
2023-05-07T07:04:39.807Z,93.19
2023-05-07T07:07:06.866Z,93.11
2023-05-07T07:09:35.947Z,92.89
2023-05-07T07:12:02.785Z,92.49
2023-05-07T07:14:29.447Z,92.16
2023-05-07T07:16:56.404Z,92.24
2023-05-07T07:19:23.148Z,91.69
2023-05-07T07:21:51.110Z,91.40
2023-05-07T07:24:22.077Z,91.02
2023-05-07T07:26:48.972Z,90.48
2023-05-07T07:29:15.692Z,89.86
2023-05-07T07:31:42.277Z,89.23
2023-05-07T07:34:08.999Z,89.04
2023-05-07T07:36:45.661Z,89.27
2023-05-07T07:39:16.072Z,89.01
2023-05-07T07:41:45.713Z,88.95
2023-05-07T07:44:16.022Z,88.37
2023-05-07T07:46:43.520Z,86.93
2023-05-07T07:49:10.382Z,85.83
2023-05-07T07:51:38.480Z,85.55
2023-05-07T07:54:05.434Z,85.36
2023-05-07T07:56:34.675Z,85.71
2023-05-07T07:59:02.027Z,86.38
2023-05-07T08:01:31.092Z,86.48
2023-05-07T08:04:00.014Z,86.66
2023-05-07T08:06:29.477Z,86.95
2023-05-07T08:08:56.321Z,86.70
2023-05-07T08:11:23.053Z,86.52
2023-05-07T08:13:50.030Z,85.63
2023-05-07T08:16:16.699Z,84.96
2023-05-07T08:18:46.035Z,84.57
2023-05-07T08:21:12.705Z,83.37
2023-05-07T08:23:41.787Z,81.87
2023-05-07T08:26:10.054Z,80.25
2023-05-07T08:28:36.762Z,79.01
2023-05-07T08:31:03.733Z,78.11
2023-05-07T08:33:32.559Z,76.04
2023-05-07T08:35:59.568Z,74.48
2023-05-07T08:38:28.618Z,73.56
2023-05-07T08:40:57.779Z,72.53
2023-05-07T08:43:28.325Z,72.68
2023-05-07T08:46:02.645Z,73.68
2023-05-07T08:48:31.200Z,73.74
2023-05-07T08:50:59.850Z,73.67
2023-05-07T08:53:26.792Z,72.02
2023-05-07T08:55:54.543Z,71.35
2023-05-07T08:58:21.332Z,70.07
2023-05-07T09:00:48.565Z,68.07
2023-05-07T09:03:15.496Z,67.53
2023-05-07T09:05:42.399Z,67.34
2023-05-07T09:08:09.334Z,67.56
2023-05-07T09:10:36.028Z,67.97
2023-05-07T09:13:04.852Z,68.33
2023-05-07T09:15:31.812Z,70.14
2023-05-07T09:18:04.967Z,70.06
2023-05-07T09:20:33.009Z,70.92
2023-05-07T09:22:59.803Z,72.00
2023-05-07T09:25:32.559Z,72.36
2023-05-07T09:28:00.083Z,72.88
2023-05-07T09:30:31.344Z,72.96
2023-05-07T09:33:00.809Z,73.17
2023-05-07T09:35:28.727Z,73.26
2023-05-07T09:37:58.065Z,73.48
2023-05-07T09:40:30.629Z,74.13
2023-05-07T09:42:57.495Z,74.38
2023-05-07T09:45:26.515Z,74.95
2023-05-07T09:47:58.881Z,75.51
2023-05-07T09:50:33.717Z,74.82
2023-05-07T09:53:01.021Z,74.70
2023-05-07T09:55:28.704Z,75.21
2023-05-07T10:00:38.779Z,74.86
2023-05-07T10:03:16.813Z,75.05
2023-05-07T10:05:45.685Z,74.42
2023-05-07T10:08:17.891Z,74.30
2023-05-07T10:10:55.939Z,74.58
2023-05-07T10:13:23.267Z,73.97
2023-05-07T10:15:54.374Z,73.88
2023-05-07T10:18:30.639Z,74.02
2023-05-07T10:21:03.833Z,74.20
2023-05-07T10:23:42.789Z,74.31
2023-05-07T10:26:10.555Z,74.07
2023-05-07T10:28:47.908Z,74.40
2023-05-07T10:31:51.362Z,75.03
2023-05-07T10:34:33.516Z,75.43
2023-05-07T10:37:01.038Z,75.10
2023-05-07T10:39:28.572Z,75.42
2023-05-07T10:41:55.346Z,75.43
2023-05-07T10:44:34.354Z,75.45
2023-05-07T10:47:10.376Z,75.58
2023-05-07T10:49:43.937Z,76.26
2023-05-07T10:52:27.888Z,76.04
2023-05-07T10:55:26.159Z,76.04
2023-05-07T10:57:52.976Z,75.63
2023-05-07T11:00:38.944Z,75.69
2023-05-07T11:03:08.112Z,75.93
2023-05-07T11:05:40.242Z,75.39
2023-05-07T11:08:07.393Z,75.18
2023-05-07T11:10:54.458Z,75.29
2023-05-07T11:13:44.165Z,74.45
2023-05-07T11:16:25.963Z,75.09
2023-05-07T11:18:57.409Z,75.04
2023-05-07T11:21:36.125Z,74.92
2023-05-07T11:24:06.690Z,74.67
2023-05-07T11:26:48.717Z,74.64
2023-05-07T11:29:23.866Z,74.80
2023-05-07T11:32:00.982Z,74.39
2023-05-07T11:34:28.711Z,74.44
2023-05-07T11:36:56.827Z,73.76
2023-05-07T11:39:28.492Z,73.53
2023-05-07T11:41:55.332Z,73.35
2023-05-07T11:44:21.948Z,73.31
2023-05-07T11:46:49.680Z,73.13
2023-05-07T11:49:16.866Z,72.80
2023-05-07T11:51:44.257Z,72.18
2023-05-07T11:54:12.474Z,71.52
2023-05-07T11:56:40.060Z,70.10
2023-05-07T11:59:07.449Z,69.81
2023-05-07T12:01:37.233Z,69.36
2023-05-07T12:04:06.439Z,69.29
2023-05-07T12:06:40.177Z,68.58
2023-05-07T12:09:12.597Z,68.60
2023-05-07T12:11:40.934Z,67.86
2023-05-07T12:14:09.486Z,67.76
2023-05-07T12:16:38.300Z,67.34
2023-05-07T12:19:10.615Z,67.09
2023-05-07T12:21:37.395Z,66.80
2023-05-07T12:24:04.459Z,66.52
2023-05-07T12:26:31.311Z,66.25
2023-05-07T12:29:04.644Z,66.03
2023-05-07T12:31:34.822Z,66.38
2023-05-07T12:34:07.203Z,65.82
2023-05-07T12:36:42.561Z,64.55
2023-05-07T12:39:09.870Z,64.30
2023-05-07T12:41:57.648Z,64.66
2023-05-07T12:44:41.381Z,64.88
2023-05-07T12:47:08.392Z,64.27
2023-05-07T12:49:38.851Z,63.95
2023-05-07T12:52:06.744Z,63.83
2023-05-07T12:54:34.997Z,62.85
2023-05-07T12:57:07.592Z,63.11
2023-05-07T12:59:44.954Z,63.25
2023-05-07T13:02:14.088Z,63.02
2023-05-07T13:04:40.830Z,61.58
2023-05-07T13:07:07.532Z,62.50
2023-05-07T13:09:34.491Z,62.19
2023-05-07T13:12:04.277Z,62.47
2023-05-07T13:14:33.407Z,62.62
2023-05-07T13:17:00.077Z,62.35
2023-05-07T13:19:28.046Z,62.32
2023-05-07T13:21:58.401Z,62.35
2023-05-07T13:24:25.284Z,62.13
2023-05-07T13:26:51.892Z,60.81
2023-05-07T13:29:18.613Z,61.57
2023-05-07T13:31:45.477Z,62.09
2023-05-07T13:34:12.600Z,62.14
2023-05-07T13:36:43.027Z,63.14
2023-05-07T13:39:10.174Z,63.70
2023-05-07T13:41:36.833Z,64.14
2023-05-07T13:44:04.789Z,64.18
2023-05-07T13:46:31.868Z,64.50
2023-05-07T13:48:58.655Z,64.49
2023-05-07T13:51:25.439Z,66.26
2023-05-07T13:53:53.586Z,67.02
2023-05-07T13:56:21.431Z,68.56
2023-05-07T13:58:58.977Z,68.77
2023-05-07T14:01:31.431Z,69.24
2023-05-07T14:04:04.077Z,69.47
2023-05-07T14:06:30.945Z,70.61
2023-05-07T14:08:59.205Z,71.57
2023-05-07T14:11:25.977Z,76.80
2023-05-07T14:13:54.818Z,78.10
2023-05-07T14:16:21.648Z,78.30
2023-05-07T14:18:48.786Z,77.94
2023-05-07T14:21:19.173Z,78.02
2023-05-07T14:23:45.831Z,78.62
2023-05-07T14:26:12.695Z,78.98
2023-05-07T14:28:40.754Z,80.02
2023-05-07T14:31:12.358Z,79.46
2023-05-07T14:33:41.763Z,79.69
2023-05-07T14:36:08.752Z,80.48
2023-05-07T14:38:35.705Z,83.28
2023-05-07T14:41:02.649Z,83.07
2023-05-07T14:43:29.749Z,82.42
2023-05-07T14:46:03.510Z,82.43
2023-05-07T14:48:30.279Z,82.23
2023-05-07T14:51:35.838Z,81.41
2023-05-07T14:54:03.028Z,80.99
2023-05-07T14:56:30.142Z,81.16
2023-05-07T14:58:59.257Z,81.34
2023-05-07T15:01:29.471Z,81.22
2023-05-07T15:03:56.497Z,81.36
2023-05-07T15:06:27.450Z,81.57
2023-05-07T15:08:54.228Z,82.28
2023-05-07T15:11:21.023Z,82.59
2023-05-07T15:13:49.833Z,83.04
2023-05-07T15:16:17.222Z,83.11
2023-05-07T15:18:46.810Z,83.13
2023-05-07T15:21:14.117Z,83.37
2023-05-07T15:23:42.774Z,83.17
2023-05-07T15:26:09.860Z,83.50
2023-05-07T15:28:40.419Z,83.96
2023-05-07T15:31:08.048Z,84.07
2023-05-07T15:33:38.091Z,84.49
2023-05-07T15:36:10.547Z,84.75
2023-05-07T15:38:37.418Z,84.63
2023-05-07T15:41:04.652Z,84.78
2023-05-07T15:43:31.458Z,85.16
2023-05-07T15:46:01.193Z,85.20
2023-05-07T15:48:28.466Z,85.26
2023-05-07T15:50:57.484Z,85.02
2023-05-07T15:53:25.900Z,84.76
2023-05-07T15:55:52.556Z,84.03
2023-05-07T15:58:21.274Z,83.90
2023-05-07T16:00:48.124Z,83.54
2023-05-07T16:03:15.108Z,83.56
2023-05-07T16:05:45.153Z,83.77
2023-05-07T16:08:11.894Z,83.96
2023-05-07T16:10:41.267Z,84.63
2023-05-07T16:13:10.552Z,84.29
2023-05-07T16:15:39.351Z,84.17
2023-05-07T16:18:06.114Z,84.17
2023-05-07T16:20:37.543Z,83.95
2023-05-07T16:23:04.464Z,84.23
2023-05-07T16:25:31.840Z,84.33
2023-05-07T16:27:58.449Z,84.37
2023-05-07T16:30:25.479Z,84.27
2023-05-07T16:32:54.689Z,84.24
2023-05-07T16:35:21.650Z,84.44
2023-05-07T16:37:48.327Z,84.23
2023-05-07T16:40:15.228Z,84.65
2023-05-07T16:42:44.897Z,85.03
2023-05-07T16:45:12.035Z,84.81
2023-05-07T16:47:38.880Z,84.89
2023-05-07T16:50:06.425Z,84.79
2023-05-07T16:52:33.235Z,84.68
2023-05-07T16:55:02.198Z,84.77
2023-05-07T16:57:34.359Z,85.12
2023-05-07T17:00:01.440Z,84.98
2023-05-07T17:02:30.334Z,84.74
2023-05-07T17:04:57.015Z,84.74
2023-05-07T17:07:26.842Z,84.99
2023-05-07T17:09:56.416Z,84.75
2023-05-07T17:12:23.102Z,84.77
2023-05-07T17:14:49.877Z,84.91
2023-05-07T17:17:16.604Z,84.95
2023-05-07T17:19:44.495Z,85.37
2023-05-07T17:22:11.442Z,85.66
2023-05-07T17:24:59.068Z,85.82
2023-05-07T17:27:25.854Z,85.99
2023-05-07T17:29:55.214Z,86.27
2023-05-07T17:32:24.596Z,86.86
2023-05-07T17:35:03.140Z,87.11
2023-05-07T17:37:30.118Z,87.49
2023-05-07T17:39:57.426Z,87.57
2023-05-07T17:42:34.930Z,87.94
2023-05-07T17:45:03.837Z,87.94
2023-05-07T17:47:30.581Z,87.84
2023-05-07T17:49:57.287Z,87.84
2023-05-07T17:52:24.347Z,88.06
2023-05-07T17:54:51.012Z,88.18
2023-05-07T17:57:18.288Z,88.23
2023-05-07T17:59:46.889Z,88.13
2023-05-07T18:02:14.126Z,87.98
2023-05-07T18:04:40.917Z,87.86
2023-05-07T18:07:07.672Z,88.07
2023-05-07T18:09:34.720Z,88.20
2023-05-07T18:12:02.130Z,88.50
2023-05-07T18:14:29.448Z,88.72
2023-05-07T18:16:56.148Z,88.94
2023-05-07T18:19:22.806Z,89.28
2023-05-07T18:21:49.624Z,89.50
2023-05-07T18:24:18.692Z,89.56
2023-05-07T18:26:49.174Z,89.64
2023-05-07T18:29:18.149Z,89.08
2023-05-07T18:31:44.949Z,89.29
2023-05-07T18:34:11.726Z,89.58
2023-05-07T18:36:38.423Z,89.96
2023-05-07T18:39:09.049Z,90.52
2023-05-07T18:41:36.278Z,90.85
2023-05-07T18:44:06.777Z,91.33
2023-05-07T18:46:33.983Z,91.34
2023-05-07T18:49:01.091Z,91.76
2023-05-07T18:51:27.919Z,91.62
2023-05-07T18:53:57.382Z,91.75
2023-05-07T18:56:24.608Z,91.99
2023-05-07T18:58:51.591Z,92.16
2023-05-07T19:01:18.336Z,92.56
2023-05-07T19:03:45.374Z,92.46
2023-05-07T19:06:12.509Z,92.36
2023-05-07T19:08:39.458Z,92.34
2023-05-07T19:11:06.794Z,92.41
2023-05-07T19:13:36.089Z,92.48
2023-05-07T19:16:03.671Z,92.41
2023-05-07T19:18:32.041Z,92.57
2023-05-07T19:21:01.360Z,92.65
2023-05-07T19:23:28.442Z,93.06
2023-05-07T19:25:55.559Z,93.16
2023-05-07T19:28:22.357Z,93.03
2023-05-07T19:30:49.982Z,93.23
2023-05-07T19:33:17.071Z,93.26
2023-05-07T19:35:48.821Z,93.51
2023-05-07T19:38:15.930Z,93.44
2023-05-07T19:40:43.084Z,93.45
2023-05-07T19:43:09.854Z,93.80
2023-05-07T19:45:37.816Z,93.84
2023-05-07T19:48:07.131Z,94.02
2023-05-07T19:50:33.974Z,93.93
2023-05-07T19:53:00.805Z,94.09
2023-05-07T19:55:27.751Z,94.52
2023-05-07T19:57:55.923Z,94.44
2023-05-07T20:00:27.202Z,94.76
2023-05-07T20:02:54.134Z,94.92
2023-05-07T20:05:23.636Z,94.93
2023-05-07T20:07:50.460Z,94.95
2023-05-07T20:10:19.670Z,95.13
2023-05-07T20:12:46.697Z,95.23
2023-05-07T20:15:13.661Z,95.17
2023-05-07T20:17:40.870Z,95.25
2023-05-07T20:20:11.592Z,95.38
2023-05-07T20:22:38.482Z,95.31
2023-05-07T20:25:06.472Z,95.51
2023-05-07T20:27:35.261Z,95.38
2023-05-07T20:30:02.168Z,95.68
2023-05-07T20:32:29.414Z,95.74
2023-05-07T20:34:56.423Z,95.85
2023-05-07T20:37:23.444Z,95.83
2023-05-07T20:39:50.410Z,95.75
2023-05-07T20:42:17.631Z,95.78
2023-05-07T20:44:44.841Z,95.87
2023-05-07T20:47:13.896Z,96.08
2023-05-07T20:49:43.881Z,96.04
2023-05-07T20:52:10.737Z,96.36
2023-05-07T20:54:40.379Z,96.55
2023-05-07T20:57:10.503Z,96.61
2023-05-07T20:59:40.291Z,96.74
2023-05-07T21:02:12.393Z,96.96
2023-05-07T21:04:39.233Z,96.95
2023-05-07T21:07:07.287Z,96.91
2023-05-07T21:09:36.405Z,96.74
2023-05-07T21:12:03.418Z,96.89
2023-05-07T21:14:30.403Z,97.05
2023-05-07T21:17:01.261Z,97.09
2023-05-07T21:19:28.797Z,97.40
2023-05-07T21:21:57.903Z,97.30
2023-05-07T21:24:25.648Z,97.41
2023-05-07T21:27:00.872Z,97.50
2023-05-07T21:29:27.814Z,97.55
2023-05-07T21:31:54.833Z,97.64
2023-05-07T21:34:21.996Z,97.71
2023-05-07T21:36:52.274Z,97.68
2023-05-07T21:39:19.229Z,98.08
2023-05-07T21:41:46.338Z,97.61
2023-05-07T21:44:15.605Z,97.92
2023-05-07T21:46:45.396Z,97.87
2023-05-07T21:49:12.428Z,98.01
2023-05-07T21:51:39.204Z,98.08
2023-05-07T21:54:07.317Z,98.13
2023-05-07T21:56:36.216Z,97.95
2023-05-07T21:59:03.124Z,97.77
2023-05-07T22:01:30.114Z,97.92
2023-05-07T22:03:57.359Z,98.17
2023-05-07T22:06:25.845Z,98.13
2023-05-07T22:08:54.922Z,98.21
2023-05-07T22:11:22.041Z,98.36
2023-05-07T22:13:49.028Z,98.51
2023-05-07T22:16:20.598Z,98.72
2023-05-07T22:18:49.830Z,98.82
2023-05-07T22:21:16.782Z,98.78
2023-05-07T22:23:43.701Z,98.77
2023-05-07T22:26:14.494Z,99.26
2023-05-07T22:28:41.477Z,99.09
2023-05-07T22:31:10.615Z,99.01
2023-05-07T22:33:37.801Z,99.23
2023-05-07T22:36:08.028Z,99.57
2023-05-07T22:38:35.187Z,99.92
2023-05-07T22:41:02.045Z,100.00
2023-05-07T22:43:29.325Z,100.00
2023-05-07T22:46:02.718Z,100.00
2023-05-07T22:48:30.020Z,100.00
2023-05-07T22:50:57.018Z,100.00
2023-05-07T22:53:23.968Z,100.00
2023-05-07T22:55:50.977Z,100.00
2023-05-07T22:58:20.491Z,100.00
2023-05-07T23:00:47.681Z,100.00
2023-05-07T23:03:14.557Z,100.00
2023-05-07T23:05:41.497Z,100.00
2023-05-07T23:08:08.732Z,100.00
2023-05-07T23:10:39.175Z,100.00
2023-05-07T23:13:06.387Z,100.00
2023-05-07T23:15:33.774Z,100.00
2023-05-07T23:18:00.647Z,100.00
2023-05-07T23:20:27.814Z,100.00
2023-05-07T23:22:55.206Z,100.00
2023-05-07T23:25:22.096Z,100.00
2023-05-07T23:27:51.492Z,100.00
2023-05-07T23:30:20.481Z,100.00
2023-05-07T23:32:47.315Z,100.00
2023-05-07T23:35:16.511Z,100.00
2023-05-07T23:37:43.871Z,100.00
2023-05-07T23:40:13.469Z,100.00
2023-05-07T23:42:40.736Z,100.00
2023-05-07T23:45:08.695Z,100.00
2023-05-07T23:47:35.924Z,100.00
2023-05-07T23:50:03.691Z,100.00
2023-05-07T23:52:30.654Z,100.00
2023-05-07T23:54:59.640Z,100.00
2023-05-07T23:57:29.241Z,100.00
2023-05-07T23:59:56.197Z,100.00
